createdAt,value
2018-08-22T00:05:08.526Z,24.30
2018-08-22T00:10:18.590Z,24.30
2018-08-22T00:15:28.531Z,24.30
2018-08-22T00:20:38.561Z,24.20
2018-08-22T00:25:48.697Z,24.20
2018-08-22T00:30:58.693Z,24.10
2018-08-22T00:36:08.788Z,24.10
2018-08-22T00:41:18.926Z,24.00
2018-08-22T00:46:29.058Z,24.00
2018-08-22T00:51:39.155Z,24.00
2018-08-22T00:56:49.075Z,23.90
2018-08-22T01:01:59.845Z,23.90
2018-08-22T01:07:09.698Z,23.80
2018-08-22T01:12:19.743Z,23.60
2018-08-22T01:17:29.843Z,23.10
2018-08-22T01:22:40.052Z,23.20
2018-08-22T01:27:50.147Z,22.30
2018-08-22T01:33:00.312Z,21.90
2018-08-22T01:38:10.321Z,22.00
2018-08-22T01:43:20.270Z,21.90
2018-08-22T01:48:30.263Z,22.00
2018-08-22T01:53:40.352Z,23.00
2018-08-22T01:58:50.379Z,23.30
2018-08-22T02:04:01.088Z,23.40
2018-08-22T02:09:12.355Z,23.40
2018-08-22T02:14:22.398Z,23.40
2018-08-22T02:19:32.488Z,23.40
2018-08-22T02:24:42.568Z,23.30
2018-08-22T02:29:52.646Z,23.30
2018-08-22T02:35:02.656Z,23.20
2018-08-22T02:40:12.700Z,23.20
2018-08-22T02:45:22.884Z,23.10
2018-08-22T02:50:32.885Z,23.00
2018-08-22T02:55:43.100Z,22.80
2018-08-22T03:00:53.004Z,22.80
2018-08-22T03:06:03.506Z,22.80
2018-08-22T03:11:13.643Z,22.90
2018-08-22T03:16:23.672Z,22.90
2018-08-22T03:21:33.837Z,22.90
2018-08-22T03:26:43.836Z,22.90
2018-08-22T03:31:54.236Z,22.80
2018-08-22T03:37:04.332Z,22.80
2018-08-22T03:42:14.399Z,22.70
2018-08-22T03:47:24.375Z,22.60
2018-08-22T03:52:34.475Z,22.70
2018-08-22T03:57:44.599Z,22.70
2018-08-22T04:02:54.683Z,22.60
2018-08-22T04:08:04.580Z,22.60
2018-08-22T04:13:14.680Z,19.10
2018-08-22T04:18:24.805Z,22.40
2018-08-22T04:23:34.932Z,22.20
2018-08-22T04:28:45.015Z,22.10
2018-08-22T04:33:55.092Z,22.00
2018-08-22T04:39:06.570Z,22.00
2018-08-22T04:44:16.565Z,22.10
2018-08-22T04:49:26.607Z,22.20
2018-08-22T04:54:36.560Z,22.30
2018-08-22T04:59:46.692Z,22.30
2018-08-22T05:04:56.806Z,22.30
2018-08-22T05:10:07.229Z,22.30
2018-08-22T05:15:17.340Z,22.40
2018-08-22T05:20:27.512Z,22.50
2018-08-22T05:25:37.481Z,24.70
2018-08-22T05:30:47.452Z,22.50
2018-08-22T05:35:57.773Z,22.60
2018-08-22T05:41:07.847Z,22.70
2018-08-22T05:46:17.812Z,22.70
2018-08-22T05:51:27.971Z,22.80
2018-08-22T05:56:38.010Z,23.00
2018-08-22T06:01:48.160Z,23.10
2018-08-22T06:06:58.287Z,23.30
2018-08-22T06:12:08.608Z,23.40
2018-08-22T06:17:18.735Z,23.70
2018-08-22T06:22:28.847Z,24.00
2018-08-22T06:27:38.967Z,24.60
2018-08-22T06:32:49.040Z,25.20
2018-08-22T06:37:59.060Z,25.60
2018-08-22T06:43:09.169Z,25.80
2018-08-22T06:48:19.218Z,26.10
2018-08-22T06:53:29.289Z,26.80
2018-08-22T06:58:39.314Z,27.00
2018-08-22T07:03:49.452Z,27.20
2018-08-22T07:08:59.549Z,27.00
2018-08-22T07:14:10.078Z,26.50
2018-08-22T07:19:19.805Z,27.70
2018-08-22T07:24:29.990Z,27.60
2018-08-22T07:29:40.188Z,28.50
2018-08-22T07:34:50.321Z,28.60
2018-08-22T07:40:00.462Z,28.80
2018-08-22T07:45:13.150Z,28.70
2018-08-22T07:50:23.440Z,29.40
2018-08-22T07:55:41.451Z,27.50
2018-08-22T08:00:51.626Z,27.00
2018-08-22T08:06:01.783Z,27.30
2018-08-22T08:11:11.900Z,28.80
2018-08-22T08:16:22.214Z,29.50
2018-08-22T08:21:32.218Z,29.20
2018-08-22T08:26:42.295Z,30.60
2018-08-22T08:31:52.371Z,29.60
2018-08-22T08:37:02.380Z,31.30
2018-08-22T08:42:12.500Z,31.30
2018-08-22T08:47:23.303Z,34.10
2018-08-22T08:52:33.336Z,32.50
2018-08-22T08:57:43.252Z,34.00
2018-08-22T09:02:53.424Z,31.60
2018-08-22T09:08:03.544Z,33.00
2018-08-22T09:13:13.979Z,32.50
2018-08-22T09:18:24.339Z,34.30
2018-08-22T09:23:34.627Z,33.70
2018-08-22T09:28:44.864Z,34.10
2018-08-22T09:33:54.976Z,34.10
2018-08-22T09:39:07.863Z,35.30
2018-08-22T09:44:17.852Z,34.30
2018-08-22T09:49:27.924Z,34.80
2018-08-22T09:54:53.910Z,34.90
2018-08-22T10:00:05.531Z,35.30
2018-08-22T10:05:15.564Z,35.70
2018-08-22T10:10:25.618Z,36.30
2018-08-22T10:15:35.808Z,36.10
2018-08-22T10:20:45.963Z,36.00
2018-08-22T10:25:55.973Z,35.50
2018-08-22T10:31:06.111Z,36.40
2018-08-22T10:36:16.266Z,36.00
2018-08-22T10:41:26.288Z,36.00
2018-08-22T10:46:36.236Z,36.20
2018-08-22T10:51:46.284Z,36.90
2018-08-22T10:56:56.358Z,36.40
2018-08-22T11:02:06.568Z,37.20
2018-08-22T11:07:16.612Z,36.20
2018-08-22T11:12:26.796Z,36.80
2018-08-22T11:17:36.818Z,38.20
2018-08-22T11:22:58.501Z,37.70
2018-08-22T11:28:19.973Z,37.20
2018-08-22T11:33:41.478Z,40.00
2018-08-22T11:38:51.660Z,37.30
2018-08-22T11:44:01.779Z,37.50
2018-08-22T11:49:11.943Z,38.70
2018-08-22T11:54:22.019Z,38.90
2018-08-22T11:59:32.108Z,39.10
2018-08-22T12:04:42.178Z,39.30
2018-08-22T12:09:52.291Z,38.30
2018-08-22T12:15:02.403Z,38.20
2018-08-22T12:20:12.461Z,37.70
2018-08-22T12:25:22.739Z,37.70
2018-08-22T12:30:32.603Z,38.30
2018-08-22T12:35:42.757Z,39.60
2018-08-22T12:40:52.878Z,38.10
2018-08-22T12:46:03.003Z,38.50
2018-08-22T12:51:12.997Z,39.40
2018-08-22T12:56:23.016Z,40.10
2018-08-22T13:01:33.104Z,38.60
2018-08-22T13:06:43.231Z,38.90
2018-08-22T13:11:53.327Z,38.40
2018-08-22T13:17:03.365Z,39.60
2018-08-22T13:22:13.252Z,39.80
2018-08-22T13:27:23.419Z,38.60
2018-08-22T13:32:33.395Z,38.30
2018-08-22T13:37:43.244Z,38.70
2018-08-22T13:42:53.400Z,38.60
2018-08-22T13:48:03.518Z,38.60
2018-08-22T13:53:13.591Z,38.10
2018-08-22T13:58:23.719Z,38.40
2018-08-22T14:03:33.791Z,38.80
2018-08-22T14:08:43.873Z,38.90
2018-08-22T14:13:54.053Z,38.50
2018-08-22T14:19:04.128Z,38.60
2018-08-22T14:24:14.060Z,38.70
2018-08-22T14:29:24.319Z,38.30
2018-08-22T14:34:34.439Z,37.20
2018-08-22T14:39:44.524Z,36.90
2018-08-22T14:44:54.709Z,38.00
2018-08-22T14:50:04.742Z,37.60
2018-08-22T14:55:14.683Z,37.30
2018-08-22T15:00:24.826Z,37.80
2018-08-22T15:05:34.776Z,36.60
2018-08-22T15:10:46.191Z,37.50
2018-08-22T15:15:56.179Z,36.50
2018-08-22T15:21:06.379Z,37.00
2018-08-22T15:26:16.531Z,36.50
2018-08-22T15:31:26.625Z,36.40
2018-08-22T15:36:37.400Z,35.90
2018-08-22T15:41:47.410Z,36.20
2018-08-22T15:46:57.359Z,34.50
2018-08-22T15:52:07.381Z,34.70
2018-08-22T15:57:17.497Z,34.90
2018-08-22T16:02:27.476Z,34.20
2018-08-22T16:07:37.700Z,34.60
2018-08-22T16:12:48.696Z,34.50
2018-08-22T16:17:58.656Z,34.40
2018-08-22T16:23:08.873Z,34.30
2018-08-22T16:28:19.002Z,34.00
2018-08-22T16:33:30.306Z,33.70
2018-08-22T16:38:41.483Z,33.50
2018-08-22T16:43:51.499Z,33.40
2018-08-22T16:49:01.591Z,33.40
2018-08-22T16:54:11.723Z,32.50
2018-08-22T16:59:22.597Z,32.40
2018-08-22T17:04:33.914Z,32.50
2018-08-22T17:09:43.987Z,32.70
2018-08-22T17:14:53.977Z,32.50
2018-08-22T17:20:04.112Z,31.90
2018-08-22T17:25:14.980Z,31.90
2018-08-22T17:30:32.837Z,31.50
2018-08-22T17:35:44.502Z,31.40
2018-08-22T17:40:54.547Z,31.40
2018-08-22T17:46:08.145Z,31.30
2018-08-22T17:51:18.127Z,31.10
2018-08-22T17:56:28.205Z,30.90
2018-08-22T18:01:38.228Z,30.90
2018-08-22T18:06:48.299Z,30.70
2018-08-22T18:11:58.380Z,30.30
2018-08-22T18:17:08.494Z,30.10
2018-08-22T18:22:23.493Z,30.10
2018-08-22T18:27:35.894Z,30.10
2018-08-22T18:32:45.992Z,30.00
2018-08-22T18:37:56.608Z,30.00
2018-08-22T18:43:08.907Z,29.70
2018-08-22T18:48:18.926Z,29.70
2018-08-22T18:53:29.021Z,29.60
2018-08-22T18:58:39.907Z,29.40
2018-08-22T19:03:51.719Z,29.30
2018-08-22T19:09:02.121Z,29.20
2018-08-22T19:14:12.366Z,29.20
2018-08-22T19:19:22.889Z,28.90
2018-08-22T19:24:36.492Z,28.70
2018-08-22T19:29:46.744Z,28.60
2018-08-22T19:34:56.998Z,28.60
2018-08-22T19:40:09.567Z,28.50
2018-08-22T19:45:19.619Z,28.40
2018-08-22T19:50:29.947Z,28.20
2018-08-22T19:55:39.954Z,28.10
2018-08-22T20:00:50.113Z,27.70
2018-08-22T20:06:00.240Z,27.70
2018-08-22T20:11:10.369Z,27.80
2018-08-22T20:16:21.622Z,27.80
2018-08-22T20:21:33.803Z,27.60
2018-08-22T20:26:48.963Z,27.50
2018-08-22T20:31:58.959Z,27.40
2018-08-22T20:37:09.025Z,27.20
2018-08-22T20:42:19.122Z,27.30
2018-08-22T20:47:29.091Z,27.20
2018-08-22T20:52:39.279Z,27.20
2018-08-22T20:57:49.363Z,27.20
2018-08-22T21:02:59.935Z,27.20
2018-08-22T21:08:09.983Z,27.10
2018-08-22T21:13:27.141Z,27.10
2018-08-22T21:18:37.352Z,27.10
2018-08-22T21:23:48.328Z,27.00
2018-08-22T21:28:58.379Z,26.90
2018-08-22T21:34:13.815Z,26.80
2018-08-22T21:39:25.184Z,26.80
2018-08-22T21:44:35.208Z,26.70
2018-08-22T21:49:45.348Z,26.50
2018-08-22T21:54:55.590Z,26.50
2018-08-22T22:00:09.919Z,26.40
2018-08-22T22:05:24.612Z,26.40
2018-08-22T22:10:34.739Z,26.40
2018-08-22T22:15:45.953Z,26.30
2018-08-22T22:21:27.883Z,26.30
2018-08-22T22:26:37.927Z,26.20
2018-08-22T22:31:47.828Z,26.20
2018-08-22T22:36:57.911Z,26.20
2018-08-22T22:42:14.689Z,26.10
2018-08-22T22:47:27.391Z,26.10
2018-08-22T22:52:44.670Z,26.00
2018-08-22T22:57:54.667Z,26.00
2018-08-22T23:03:07.201Z,25.90
2018-08-22T23:08:17.343Z,25.80
2018-08-22T23:13:28.692Z,25.80
2018-08-22T23:18:39.401Z,25.70
2018-08-22T23:23:49.519Z,25.60
2018-08-22T23:28:59.667Z,25.50
2018-08-22T23:34:09.618Z,25.50
2018-08-22T23:39:22.458Z,25.40
2018-08-22T23:44:32.656Z,25.30
2018-08-22T23:49:45.667Z,25.30
2018-08-22T23:54:55.654Z,25.30
